createdAt,value
2023-04-02T00:02:21.949Z,17.40
2023-04-02T00:07:30.721Z,15.87
2023-04-02T00:12:32.825Z,17.83
2023-04-02T00:17:34.779Z,15.00
2023-04-02T00:22:44.845Z,13.73
2023-04-02T00:27:46.861Z,14.10
2023-04-02T00:32:49.055Z,15.10
2023-04-02T00:37:51.878Z,15.30
2023-04-02T00:42:58.067Z,14.07
2023-04-02T00:48:13.180Z,13.17
2023-04-02T00:53:27.598Z,14.47
2023-04-02T00:58:35.528Z,14.00
2023-04-02T01:03:39.016Z,14.10
2023-04-02T01:09:12.886Z,14.03
2023-04-02T01:14:34.810Z,15.00
2023-04-02T01:20:11.147Z,14.43
2023-04-02T01:25:17.954Z,13.10
2023-04-02T01:30:21.342Z,12.47
2023-04-02T01:35:25.996Z,13.43
2023-04-02T01:40:30.929Z,14.47
2023-04-02T01:45:34.963Z,13.63
2023-04-02T01:50:39.429Z,12.77
2023-04-02T01:55:48.707Z,13.03
2023-04-02T02:00:57.097Z,12.77
2023-04-02T02:06:02.027Z,12.83
2023-04-02T02:11:04.799Z,12.03
2023-04-02T02:16:13.049Z,13.10
2023-04-02T02:21:33.531Z,13.37
2023-04-02T02:26:36.359Z,12.43
2023-04-02T02:31:41.923Z,13.60
2023-04-02T02:36:51.594Z,14.13
2023-04-02T02:42:03.467Z,14.20
2023-04-02T02:47:15.985Z,15.13
2023-04-02T02:52:38.388Z,15.43
2023-04-02T02:57:50.326Z,15.50
2023-04-02T03:02:56.574Z,18.97
2023-04-02T03:08:04.506Z,19.57
2023-04-02T03:13:27.968Z,17.37
2023-04-02T03:18:41.188Z,18.43
2023-04-02T03:23:47.298Z,19.10
2023-04-02T03:29:02.748Z,20.97
2023-04-02T03:34:12.411Z,21.77
2023-04-02T03:39:27.189Z,21.33
2023-04-02T03:44:39.503Z,23.57
2023-04-02T03:50:06.463Z,23.33
2023-04-02T03:55:23.215Z,23.97
2023-04-02T04:00:38.536Z,23.97
2023-04-02T04:05:50.519Z,24.63
2023-04-02T04:11:00.095Z,22.83
2023-04-02T04:16:11.913Z,25.33
2023-04-02T04:21:37.519Z,23.83
2023-04-02T04:27:09.582Z,21.73
2023-04-02T04:32:32.501Z,22.73
2023-04-02T04:37:43.747Z,23.43
2023-04-02T04:42:52.851Z,22.83
2023-04-02T04:48:00.043Z,24.87
2023-04-02T04:53:08.592Z,28.50
2023-04-02T04:58:34.871Z,28.20
2023-04-02T05:04:06.706Z,31.77
2023-04-02T05:09:22.603Z,30.53
2023-04-02T05:14:57.102Z,28.67
2023-04-02T05:20:09.866Z,27.80
2023-04-02T05:25:25.000Z,27.90
2023-04-02T05:30:36.018Z,28.60
2023-04-02T05:35:44.202Z,28.63
2023-04-02T05:40:50.860Z,27.53
2023-04-02T05:45:56.988Z,28.27
2023-04-02T05:51:00.671Z,26.90
2023-04-02T05:56:27.603Z,26.40
2023-04-02T06:01:39.213Z,26.10
2023-04-02T06:07:01.072Z,27.20
2023-04-02T06:12:27.977Z,26.70
2023-04-02T06:17:43.049Z,24.70
2023-04-02T06:22:53.671Z,26.13
2023-04-02T06:27:58.460Z,25.47
2023-04-02T06:33:00.770Z,26.47
2023-04-02T06:38:07.981Z,27.93
2023-04-02T06:43:36.415Z,29.53
2023-04-02T06:49:04.515Z,27.43
2023-04-02T06:54:14.329Z,26.63
2023-04-02T06:59:18.152Z,25.30
2023-04-02T07:04:21.698Z,22.23
2023-04-02T07:09:26.736Z,22.10
2023-04-02T07:14:32.411Z,20.47
2023-04-02T07:19:34.568Z,18.00
2023-04-02T07:24:36.629Z,15.73
2023-04-02T07:29:42.790Z,16.10
2023-04-02T07:34:44.825Z,13.97
2023-04-02T07:39:46.910Z,12.83
2023-04-02T07:44:49.335Z,11.27
2023-04-02T07:49:51.187Z,11.30
2023-04-02T07:54:53.076Z,10.93
2023-04-02T07:59:56.636Z,11.90
2023-04-02T08:04:58.731Z,13.97
2023-04-02T08:10:00.840Z,13.63
2023-04-02T08:15:05.847Z,14.50
2023-04-02T08:20:10.528Z,15.30
2023-04-02T08:25:13.380Z,14.47
2023-04-02T08:30:17.208Z,16.50
2023-04-02T08:35:19.671Z,15.70
2023-04-02T08:40:27.334Z,17.50
2023-04-02T08:45:47.212Z,15.90
2023-04-02T08:50:50.752Z,17.67
2023-04-02T08:56:08.650Z,16.83
2023-04-02T09:01:42.543Z,17.43
2023-04-02T09:06:45.470Z,17.40
2023-04-02T09:12:04.672Z,17.90
2023-04-02T09:17:24.308Z,21.07
2023-04-02T09:22:29.381Z,20.87
2023-04-02T09:27:34.399Z,17.47
2023-04-02T09:32:55.317Z,16.40
2023-04-02T09:38:09.752Z,16.23
2023-04-02T09:43:17.244Z,14.00
2023-04-02T09:48:27.059Z,13.03
2023-04-02T09:53:33.295Z,11.43
2023-04-02T09:58:35.493Z,11.17
2023-04-02T10:03:37.812Z,9.67
2023-04-02T10:08:43.004Z,9.37
2023-04-02T10:14:07.070Z,8.37
2023-04-02T10:19:34.340Z,8.70
2023-04-02T10:24:36.664Z,7.60
2023-04-02T10:29:51.489Z,7.23
2023-04-02T10:34:56.528Z,6.83
2023-04-02T10:40:10.036Z,7.37
2023-04-02T10:45:35.733Z,6.50
2023-04-02T10:50:50.116Z,5.10
2023-04-02T10:55:56.256Z,5.20
2023-04-02T11:01:09.118Z,4.37
2023-04-02T11:06:27.630Z,4.97
2023-04-02T11:11:36.691Z,5.13
2023-04-02T11:16:42.672Z,5.00
2023-04-02T11:22:04.424Z,5.27
2023-04-02T11:27:12.059Z,4.80
2023-04-02T11:32:20.669Z,4.57
2023-04-02T11:37:38.283Z,5.30
2023-04-02T11:42:42.282Z,4.37
2023-04-02T11:48:30.596Z,4.20
2023-04-02T11:53:34.931Z,4.17
2023-04-02T11:58:51.019Z,4.37
2023-04-02T12:04:09.656Z,4.13
2023-04-02T12:09:23.814Z,3.73
2023-04-02T12:14:35.480Z,3.97
2023-04-02T12:19:37.563Z,3.73
2023-04-02T12:24:40.987Z,3.50
2023-04-02T12:29:43.379Z,3.20
2023-04-02T12:34:46.809Z,3.63
2023-04-02T12:40:07.456Z,3.50
2023-04-02T12:45:29.607Z,2.80
2023-04-02T12:50:34.337Z,2.87
2023-04-02T12:55:36.972Z,3.43
2023-04-02T13:00:39.594Z,3.27
2023-04-02T13:05:50.808Z,3.20
2023-04-02T13:11:01.263Z,3.27
2023-04-02T13:16:25.350Z,3.50
2023-04-02T13:21:28.670Z,3.53
2023-04-02T13:26:30.980Z,3.20
2023-04-02T13:31:33.363Z,3.30
2023-04-02T13:36:37.356Z,2.87
2023-04-02T13:41:43.001Z,3.20
2023-04-02T13:46:45.212Z,3.63
2023-04-02T13:51:53.258Z,3.30
2023-04-02T13:56:56.968Z,3.13
2023-04-02T14:02:07.505Z,2.70
2023-04-02T14:07:24.792Z,3.17
2023-04-02T14:12:41.598Z,3.47
2023-04-02T14:18:11.567Z,2.90
2023-04-02T14:23:33.046Z,3.20
2023-04-02T14:29:03.033Z,3.40
2023-04-02T14:34:29.225Z,3.73
2023-04-02T14:39:49.979Z,3.30
2023-04-02T14:45:02.692Z,3.87
2023-04-02T14:50:12.955Z,3.67
2023-04-02T14:55:26.246Z,4.53
2023-04-02T15:00:34.465Z,3.87
2023-04-02T15:05:46.582Z,6.63
2023-04-02T15:11:08.084Z,5.53
2023-04-02T15:16:19.714Z,5.30
2023-04-02T15:21:29.577Z,4.70
2023-04-02T15:26:55.183Z,4.57
2023-04-02T15:32:10.441Z,3.87
2023-04-02T15:37:31.078Z,4.33
2023-04-02T15:42:43.635Z,4.53
2023-04-02T15:47:57.268Z,4.60
2023-04-02T15:53:04.799Z,4.53
2023-04-02T15:58:24.238Z,3.90
2023-04-02T16:03:49.425Z,3.47
2023-04-02T16:09:09.107Z,3.70
2023-04-02T16:14:22.685Z,3.70
2023-04-02T16:19:35.914Z,2.47
2023-04-02T16:24:38.051Z,2.30
2023-04-02T16:29:55.389Z,2.17
2023-04-02T16:40:32.968Z,1.83
2023-04-02T16:46:11.931Z,1.63
2023-04-02T16:51:22.316Z,1.70
2023-04-02T16:57:01.876Z,1.67
2023-04-02T17:02:12.708Z,1.60
2023-04-02T17:07:14.620Z,1.80
2023-04-02T17:12:22.086Z,1.70
2023-04-02T17:17:24.439Z,2.13
2023-04-02T17:22:26.880Z,2.30
2023-04-02T17:27:33.390Z,2.80
2023-04-02T17:32:36.917Z,2.47
2023-04-02T17:37:47.242Z,2.77
2023-04-02T17:43:13.409Z,2.60
2023-04-02T17:48:18.738Z,3.10
2023-04-02T17:53:58.534Z,3.27
2023-04-02T17:59:33.397Z,3.43
2023-04-02T18:05:10.646Z,4.87
2023-04-02T18:10:41.365Z,4.63
2023-04-02T18:15:55.595Z,5.23
2023-04-02T18:21:09.902Z,4.90
2023-04-02T18:26:36.286Z,4.87
2023-04-02T18:31:46.509Z,5.30
2023-04-02T18:37:27.095Z,6.27
2023-04-02T18:42:45.893Z,7.37
2023-04-02T18:48:15.307Z,6.20
2023-04-02T18:53:21.613Z,6.50
2023-04-02T18:58:49.578Z,8.07
2023-04-02T19:03:54.789Z,9.40
2023-04-02T19:09:05.341Z,9.43
2023-04-02T19:14:12.589Z,8.63
2023-04-02T19:19:26.712Z,8.23
2023-04-02T19:24:51.397Z,8.70
2023-04-02T19:30:12.876Z,10.83
2023-04-02T19:35:22.932Z,13.37
2023-04-02T19:40:48.380Z,11.83
2023-04-02T19:45:53.203Z,12.40
2023-04-02T19:50:55.279Z,19.47
2023-04-02T19:55:57.706Z,20.40
2023-04-02T20:01:00.785Z,17.83
2023-04-02T20:06:02.959Z,16.77
2023-04-02T20:11:06.206Z,15.23
2023-04-02T20:16:08.293Z,14.47
2023-04-02T20:21:10.462Z,12.87
2023-04-02T20:26:12.861Z,9.73
2023-04-02T20:31:17.491Z,8.97
2023-04-02T20:36:19.618Z,8.57
2023-04-02T20:41:21.956Z,9.07
2023-04-02T20:46:24.158Z,9.43
2023-04-02T20:51:26.034Z,10.27
2023-04-02T20:56:28.179Z,11.50
2023-04-02T21:01:31.001Z,9.90
2023-04-02T21:06:35.338Z,9.93
2023-04-02T21:11:37.542Z,10.00
2023-04-02T21:16:41.347Z,10.10
2023-04-02T21:21:44.932Z,9.57
2023-04-02T21:26:47.423Z,9.10
2023-04-02T21:31:50.327Z,9.33
2023-04-02T21:36:52.317Z,9.03
2023-04-02T21:41:54.768Z,9.73
2023-04-02T21:46:56.869Z,9.23
2023-04-02T21:51:59.279Z,9.50
2023-04-02T21:57:01.299Z,10.50
2023-04-02T22:02:04.761Z,10.53
2023-04-02T22:07:06.799Z,9.60
2023-04-02T22:12:08.807Z,9.53
2023-04-02T22:17:10.849Z,10.40
2023-04-02T22:22:12.914Z,9.67
2023-04-02T22:27:14.765Z,11.70
2023-04-02T22:32:16.776Z,10.30
2023-04-02T22:37:18.748Z,9.93
2023-04-02T22:42:21.308Z,9.90
2023-04-02T22:47:23.354Z,11.67
2023-04-02T22:52:25.517Z,10.20
2023-04-02T22:57:27.657Z,10.57
2023-04-02T23:02:29.849Z,11.00
2023-04-02T23:07:31.831Z,10.27
2023-04-02T23:12:33.715Z,10.83
2023-04-02T23:17:37.719Z,11.27
2023-04-02T23:22:39.772Z,12.23
2023-04-02T23:27:41.833Z,11.60
2023-04-02T23:32:44.040Z,11.17
2023-04-02T23:37:49.234Z,11.57
2023-04-02T23:42:51.315Z,12.40
2023-04-02T23:47:53.528Z,11.17
2023-04-02T23:52:55.874Z,11.00
2023-04-02T23:57:58.263Z,11.33
